Time;durP1;ratioP1;P1;durP2;ratioP2;P2;SDS_P1;SDS_P2;PMS_P1;PMS_P2;Temp;Humidity;BMP_temperature;BMP_pressure;BME280_temperature;BME280_humidity;BME280_pressure;Samples;Min_cycle;Max_cycle;Signal;HPM_P1;HPM_P2
2021/09/14 00:00:00;;;;;;;4.40;4.20;;;22.60;56.90;;;;;;5029296;28;20049;-82
2021/09/14 00:02:26;;;;;;;4.80;4.60;;;22.60;56.90;;;;;;5022080;28;20033;-81
2021/09/14 00:04:52;;;;;;;4.68;4.47;;;22.60;57.10;;;;;;5027418;28;20038;-82
2021/09/14 00:07:18;;;;;;;4.70;4.50;;;22.60;57.20;;;;;;5026954;28;20029;-83
2021/09/14 00:09:44;;;;;;;4.30;4.10;;;22.60;57.20;;;;;;5025509;28;20048;-82
2021/09/14 00:12:10;;;;;;;4.75;4.55;;;22.60;57.30;;;;;;5008197;28;20097;-82
2021/09/14 00:14:36;;;;;;;4.93;4.72;;;22.60;57.40;;;;;;5031307;28;20040;-82
2021/09/14 00:17:03;;;;;;;5.03;4.72;;;22.60;57.40;;;;;;5024014;28;20034;-83
2021/09/14 00:19:29;;;;;;;4.57;4.38;;;22.60;57.40;;;;;;5011752;28;20046;-83
2021/09/14 00:21:55;;;;;;;4.55;4.35;;;22.60;57.40;;;;;;5020513;28;20030;-82
2021/09/14 00:24:21;;;;;;;4.57;4.38;;;22.60;57.40;;;;;;5013347;28;20048;-83
2021/09/14 00:26:47;;;;;;;4.82;4.63;;;22.60;57.50;;;;;;5021118;28;20071;-82
2021/09/14 00:29:13;;;;;;;4.72;4.43;;;22.60;57.50;;;;;;5028566;28;20032;-82
2021/09/14 00:31:39;;;;;;;4.88;4.63;;;22.60;57.60;;;;;;5019294;28;20402;-82
2021/09/14 00:34:05;;;;;;;4.45;4.25;;;22.60;57.70;;;;;;5030049;28;20029;-82
2021/09/14 00:36:31;;;;;;;4.50;4.30;;;22.50;57.70;;;;;;5030200;28;20084;-83
2021/09/14 00:38:57;;;;;;;4.55;4.35;;;22.50;57.80;;;;;;5029917;28;20025;-83
2021/09/14 00:41:23;;;;;;;4.60;4.30;;;22.40;57.90;;;;;;5026366;28;20041;-83
2021/09/14 00:44:00;;;;;;;4.65;4.45;;;22.40;58.00;;;;;;5018415;28;20509;-82
2021/09/14 00:46:26;;;;;;;4.40;4.20;;;22.40;58.10;;;;;;5019378;28;20042;-82
2021/09/14 00:48:52;;;;;;;4.50;4.30;;;22.40;58.10;;;;;;4999122;28;20026;-82
2021/09/14 00:51:18;;;;;;;4.40;4.20;;;22.40;58.10;;;;;;5011494;28;20028;-82
2021/09/14 00:53:47;;;;;;;4.78;4.47;;;22.40;58.10;;;;;;5028490;28;20499;-82
2021/09/14 00:56:14;;;;;;;4.40;4.20;;;22.40;58.10;;;;;;5027258;28;20030;-83
2021/09/14 00:58:41;;;;;;;4.38;4.18;;;22.40;58.20;;;;;;5023584;28;20062;-82
2021/09/14 01:01:07;;;;;;;4.32;4.13;;;22.40;58.20;;;;;;5022123;28;20523;-82
2021/09/14 01:03:34;;;;;;;4.65;4.40;;;22.40;58.30;;;;;;5031267;28;20029;-82
2021/09/14 01:06:01;;;;;;;4.75;4.50;;;22.40;58.30;;;;;;5027588;28;20037;-82
2021/09/14 01:08:27;;;;;;;4.28;4.07;;;22.40;58.30;;;;;;5030549;28;20037;-82
2021/09/14 01:10:53;;;;;;;4.55;4.35;;;22.40;58.30;;;;;;5030538;28;20037;-82
2021/09/14 01:13:19;;;;;;;4.60;4.40;;;22.40;58.30;;;;;;5023513;28;20025;-82
2021/09/14 01:15:45;;;;;;;4.93;4.63;;;22.40;58.40;;;;;;5027560;28;20030;-83
2021/09/14 01:18:11;;;;;;;4.60;4.30;;;22.40;58.40;;;;;;5027114;28;20048;-82
2021/09/14 01:20:37;;;;;;;4.50;4.28;;;22.40;58.50;;;;;;5029551;28;20037;-83
2021/09/14 01:23:03;;;;;;;4.60;4.40;;;22.40;58.50;;;;;;5017622;28;20025;-82
2021/09/14 01:25:29;;;;;;;4.70;4.50;;;22.40;58.50;;;;;;5014452;28;20379;-83
2021/09/14 01:28:01;;;;;;;4.50;4.30;;;22.40;58.50;;;;;;5008772;28;20048;-82
2021/09/14 01:30:27;;;;;;;4.70;4.50;;;22.40;58.60;;;;;;5021107;28;20030;-82
2021/09/14 01:32:55;;;;;;;4.90;4.63;;;22.40;58.60;;;;;;5031457;28;20036;-82
2021/09/14 01:35:26;;;;;;;4.78;4.43;;;22.40;58.60;;;;;;5030265;28;20032;-82
2021/09/14 01:37:53;;;;;;;4.45;4.25;;;22.40;58.70;;;;;;4999054;28;20045;-82
2021/09/14 01:40:19;;;;;;;5.13;4.63;;;22.40;58.70;;;;;;5030544;28;20374;-82
2021/09/14 01:42:45;;;;;;;4.53;4.32;;;22.40;58.70;;;;;;4985953;28;20034;-82
2021/09/14 01:45:12;;;;;;;4.97;4.68;;;22.40;58.80;;;;;;5030509;28;20033;-82
2021/09/14 01:47:38;;;;;;;4.78;4.47;;;22.40;58.80;;;;;;5022901;28;20026;-82
2021/09/14 01:50:05;;;;;;;4.65;4.45;;;22.40;58.80;;;;;;5023666;28;20029;-82
2021/09/14 01:52:32;;;;;;;4.60;4.40;;;22.40;59.50;;;;;;5004318;28;20041;-82
2021/09/14 01:55:06;;;;;;;4.65;4.38;;;22.40;58.90;;;;;;4994641;28;20042;-82
2021/09/14 01:57:36;;;;;;;5.00;4.70;;;22.40;59.00;;;;;;5022232;28;20033;-82
2021/09/14 02:00:09;;;;;;;4.70;4.50;;;22.40;59.00;;;;;;5001213;28;20384;-77
2021/09/14 02:05:29;;;;;;;4.60;4.40;;;22.40;59.00;;;;;;5019934;28;20422;-82
2021/09/14 02:59:01;;;;;;;4.55;4.35;;;22.50;59.50;;;;;;5028075;28;20026;-83
2021/09/14 03:01:27;;;;;;;4.97;4.57;;;22.50;59.50;;;;;;5026378;28;20068;-83
2021/09/14 03:03:55;;;;;;;4.47;4.20;;;22.50;59.70;;;;;;5028269;28;20050;-83
2021/09/14 03:06:21;;;;;;;4.18;3.97;;;22.50;59.70;;;;;;5013315;28;20025;-83
2021/09/14 03:08:48;;;;;;;4.40;4.20;;;22.50;59.90;;;;;;5029297;28;20046;-83
2021/09/14 03:11:15;;;;;;;4.90;4.60;;;22.50;59.90;;;;;;5024894;28;20040;-82
2021/09/14 03:13:41;;;;;;;4.50;4.30;;;22.50;60.00;;;;;;5005047;28;20022;-82
2021/09/14 03:16:08;;;;;;;4.40;4.10;;;22.50;60.10;;;;;;5020730;28;20037;-82
2021/09/14 03:18:35;;;;;;;4.70;4.35;;;22.40;60.20;;;;;;5026994;28;20081;-82
2021/09/14 03:21:01;;;;;;;4.40;4.20;;;22.50;60.40;;;;;;5025880;28;20041;-82
2021/09/14 03:23:27;;;;;;;4.72;4.47;;;22.50;60.40;;;;;;5028881;28;20032;-82
2021/09/14 03:25:54;;;;;;;4.90;4.63;;;22.50;60.60;;;;;;5029306;28;20026;-82
2021/09/14 03:28:20;;;;;;;4.05;3.85;;;22.50;60.80;;;;;;5029084;28;20033;-83
2021/09/14 03:30:47;;;;;;;8.82;4.43;;;22.50;60.90;;;;;;5025712;28;20056;-82
2021/09/14 03:33:14;;;;;;;6.03;3.95;;;22.50;61.00;;;;;;5004444;28;20395;-82
2021/09/14 03:35:40;;;;;;;4.13;3.92;;;22.50;61.10;;;;;;5030426;28;20040;-82
2021/09/14 03:38:06;;;;;;;3.85;3.65;;;22.50;61.20;;;;;;5029369;28;20455;-82
2021/09/14 03:40:32;;;;;;;3.90;3.65;;;22.40;61.30;;;;;;5029706;28;20037;-82
2021/09/14 03:42:58;;;;;;;3.70;3.50;;;22.40;61.50;;;;;;5009837;28;20041;-82
2021/09/14 03:45:25;;;;;;;4.00;3.80;;;22.40;61.60;;;;;;5023376;28;20041;-83
2021/09/14 03:47:51;;;;;;;3.90;3.70;;;22.40;61.80;;;;;;5027564;28;20465;-82
2021/09/14 03:50:17;;;;;;;3.70;3.50;;;22.40;61.90;;;;;;5030397;28;20025;-82
2021/09/14 03:52:43;;;;;;;3.80;3.60;;;22.40;62.00;;;;;;5027638;28;20382;-82
2021/09/14 03:55:09;;;;;;;4.18;3.88;;;22.40;62.20;;;;;;5026827;28;20022;-82
2021/09/14 03:57:35;;;;;;;4.07;3.88;;;22.40;62.30;;;;;;5027877;28;20032;-82
2021/09/14 04:00:02;;;;;;;4.18;3.97;;;22.30;62.40;;;;;;5026376;28;20347;-83
2021/09/14 04:02:36;;;;;;;4.43;4.00;;;22.30;62.60;;;;;;5026929;28;20037;-82
2021/09/14 04:05:10;;;;;;;3.90;3.70;;;22.30;62.80;;;;;;5020994;28;20029;-82
2021/09/14 04:07:51;;;;;;;3.97;3.78;;;22.20;62.90;;;;;;5013923;28;20399;-83
2021/09/14 04:10:17;;;;;;;3.90;3.70;;;22.20;63.10;;;;;;5024975;28;20042;-82
2021/09/14 04:12:43;;;;;;;4.30;4.10;;;22.20;63.20;;;;;;5025526;28;20025;-82
2021/09/14 04:15:09;;;;;;;5.32;3.95;;;22.10;63.30;;;;;;5026344;28;20026;-82
2021/09/14 04:17:36;;;;;;;3.88;3.67;;;22.10;63.40;;;;;;5029910;28;20021;-82
2021/09/14 04:20:02;;;;;;;3.03;2.92;;;22.00;63.50;;;;;;5028335;28;20493;-83
2021/09/14 04:22:28;;;;;;;4.00;3.80;;;22.00;63.70;;;;;;5017688;28;20061;-82
2021/09/14 04:24:55;;;;;;;4.50;4.30;;;22.00;63.80;;;;;;5021651;28;20038;-82
2021/09/14 04:27:21;;;;;;;3.85;3.65;;;22.00;64.10;;;;;;5023448;28;20034;-83
2021/09/14 04:29:47;;;;;;;4.40;4.20;;;21.90;64.30;;;;;;5029369;28;20262;-82
2021/09/14 04:32:13;;;;;;;4.40;4.20;;;21.90;64.50;;;;;;5025399;28;20060;-82
2021/09/14 04:34:39;;;;;;;4.30;4.10;;;21.90;64.70;;;;;;5018031;28;20467;-82
2021/09/14 04:37:05;;;;;;;4.50;4.30;;;21.80;65.00;;;;;;5014346;28;20041;-82
2021/09/14 04:39:31;;;;;;;4.22;4.03;;;21.80;65.20;;;;;;5029727;28;20504;-82
2021/09/14 04:41:58;;;;;;;4.10;3.90;;;21.70;65.30;;;;;;5029469;28;20049;-81
2021/09/14 04:44:24;;;;;;;4.00;3.80;;;21.70;65.30;;;;;;5025476;28;20029;-82
2021/09/14 04:46:50;;;;;;;3.85;3.65;;;21.80;65.40;;;;;;5030481;28;20041;-81
2021/09/14 04:49:16;;;;;;;4.57;4.32;;;21.70;65.30;;;;;;5023741;28;20022;-81
2021/09/14 04:51:42;;;;;;;4.25;4.05;;;21.70;65.30;;;;;;5028020;28;20030;-82
2021/09/14 04:54:08;;;;;;;3.90;3.70;;;21.70;65.40;;;;;;5031143;28;20021;-82
2021/09/14 04:56:34;;;;;;;4.32;4.13;;;21.80;65.40;;;;;;5031270;28;20037;-82
2021/09/14 04:59:00;;;;;;;4.65;4.35;;;21.80;65.50;;;;;;5024607;28;20382;-82
2021/09/14 05:01:26;;;;;;;4.35;4.15;;;21.80;65.50;;;;;;5021757;28;20042;-82
2021/09/14 05:03:52;;;;;;;4.55;4.35;;;21.80;65.60;;;;;;5029791;28;20489;-81
2021/09/14 05:06:18;;;;;;;4.20;4.00;;;21.80;65.60;;;;;;5029721;28;20052;-82
2021/09/14 05:08:45;;;;;;;4.05;3.85;;;21.80;65.70;;;;;;5028460;28;20038;-82
2021/09/14 05:11:13;;;;;;;3.75;3.55;;;21.80;65.70;;;;;;5030587;28;20036;-81
2021/09/14 05:13:39;;;;;;;4.22;4.03;;;21.80;65.60;;;;;;5021242;28;20042;-81
2021/09/14 05:16:06;;;;;;;3.50;3.30;;;21.80;65.60;;;;;;5030925;28;20044;-81
2021/09/14 05:18:32;;;;;;;3.22;3.13;;;21.80;65.60;;;;;;5011812;28;20038;-80
2021/09/14 05:20:58;;;;;;;3.90;3.63;;;21.90;65.60;;;;;;5027454;28;20041;-81
2021/09/14 05:23:30;;;;;;;9.38;3.88;;;21.90;65.60;;;;;;5014651;28;20025;-80
2021/09/14 05:25:57;;;;;;;6.55;4.65;;;21.90;65.70;;;;;;5021564;28;20030;-81
2021/09/14 05:28:24;;;;;;;13.60;4.63;;;21.90;65.70;;;;;;5026790;28;20064;-81
2021/09/14 05:30:51;;;;;;;4.47;4.28;;;21.90;65.90;;;;;;5022288;28;20049;-81
2021/09/14 05:33:17;;;;;;;4.35;4.13;;;21.90;65.90;;;;;;5030442;28;20025;-81
2021/09/14 05:35:50;;;;;;;3.60;3.42;;;21.80;65.90;;;;;;5030679;28;20038;-81
2021/09/14 05:38:18;;;;;;;3.42;3.28;;;21.90;66.10;;;;;;5004873;28;20029;-81
2021/09/14 05:40:44;;;;;;;3.60;3.40;;;21.90;66.00;;;;;;5020278;28;20045;-81
2021/09/14 05:43:10;;;;;;;3.95;3.72;;;21.90;66.00;;;;;;5028323;28;20034;-81
2021/09/14 05:45:37;;;;;;;3.70;3.50;;;21.90;66.00;;;;;;5029689;28;20029;-81
2021/09/14 05:48:03;;;;;;;4.13;3.92;;;21.90;66.90;;;;;;5011487;28;20034;-81
2021/09/14 05:50:29;;;;;;;3.90;3.67;;;21.90;66.10;;;;;;5024902;28;20504;-81
2021/09/14 05:52:55;;;;;;;3.90;3.70;;;21.90;66.10;;;;;;5031310;28;20038;-81
2021/09/14 05:55:22;;;;;;;4.00;3.80;;;21.90;66.10;;;;;;5030710;28;20040;-81
2021/09/14 05:57:48;;;;;;;4.03;3.83;;;22.00;66.20;;;;;;5024529;28;20033;-81
2021/09/14 06:00:14;;;;;;;3.78;3.58;;;21.90;66.20;;;;;;5026590;28;20029;-81
2021/09/14 06:02:40;;;;;;;3.72;3.53;;;21.90;66.30;;;;;;5024204;28;20044;-81
2021/09/14 06:05:07;;;;;;;3.80;3.60;;;21.90;66.40;;;;;;5030724;28;20036;-81
2021/09/14 06:07:33;;;;;;;3.92;3.72;;;21.90;66.50;;;;;;5010755;28;20033;-81
2021/09/14 06:10:00;;;;;;;4.20;4.00;;;21.90;66.50;;;;;;5006470;28;20029;-81
2021/09/14 06:12:26;;;;;;;4.13;3.92;;;21.90;66.50;;;;;;5006117;28;20040;-81
2021/09/14 06:14:52;;;;;;;4.30;4.00;;;21.90;66.60;;;;;;5027350;28;20033;-81
2021/09/14 06:17:18;;;;;;;5.03;4.63;;;21.90;66.60;;;;;;5024934;28;20033;-81
2021/09/14 06:19:44;;;;;;;3.88;3.60;;;21.90;66.60;;;;;;5023410;28;20044;-81
2021/09/14 06:22:10;;;;;;;3.90;3.70;;;21.90;66.70;;;;;;5030162;28;20038;-81
2021/09/14 06:24:36;;;;;;;3.72;3.53;;;22.00;66.80;;;;;;5016137;28;20471;-81
2021/09/14 06:27:03;;;;;;;4.20;4.00;;;22.00;66.80;;;;;;5024429;28;20037;-85
2021/09/14 06:29:29;;;;;;;4.45;4.18;;;22.00;66.90;;;;;;5027122;28;20390;-84
2021/09/14 06:31:55;;;;;;;4.20;3.90;;;22.00;66.90;;;;;;5029276;28;20034;-87
2021/09/14 06:34:21;;;;;;;3.92;3.72;;;21.90;66.90;;;;;;5023157;28;20399;-88
2021/09/14 06:36:47;;;;;;;4.72;4.50;;;21.90;66.90;;;;;;5024392;28;20029;-83
2021/09/14 06:39:13;;;;;;;4.93;4.63;;;21.90;67.00;;;;;;5026429;28;20097;-86
2021/09/14 06:41:39;;;;;;;3.90;3.70;;;21.90;67.20;;;;;;5023219;28;20057;-82
2021/09/14 06:44:05;;;;;;;4.32;4.13;;;21.90;68.00;;;;;;5014625;28;20102;-80
2021/09/14 06:46:31;;;;;;;4.68;4.47;;;21.90;67.30;;;;;;5029430;28;20048;-79
2021/09/14 06:48:57;;;;;;;4.68;4.43;;;21.80;67.40;;;;;;5029470;28;20033;-80
2021/09/14 06:51:24;;;;;;;4.13;3.92;;;21.80;67.50;;;;;;5030377;28;20041;-79
2021/09/14 06:53:50;;;;;;;3.90;3.70;;;21.80;67.70;;;;;;5030352;28;20355;-80
2021/09/14 06:56:16;;;;;;;4.40;4.20;;;21.80;67.70;;;;;;5031680;28;20025;-82
2021/09/14 06:58:42;;;;;;;4.05;3.85;;;21.80;67.70;;;;;;5033979;28;20014;-87
2021/09/14 07:01:08;;;;;;;4.13;3.92;;;21.80;67.70;;;;;;5016548;28;20486;-87
2021/09/14 07:03:34;;;;;;;4.65;4.35;;;21.90;67.70;;;;;;5034027;28;20030;-86
2021/09/14 07:06:00;;;;;;;4.47;4.20;;;21.90;67.70;;;;;;5031619;28;20026;-82
2021/09/14 07:08:26;;;;;;;4.68;4.47;;;21.90;67.70;;;;;;5030596;28;20398;-82
2021/09/14 07:10:53;;;;;;;4.53;4.28;;;21.90;67.70;;;;;;5032585;28;20034;-81
2021/09/14 07:13:19;;;;;;;4.60;4.40;;;21.90;67.70;;;;;;5033838;28;20030;-82
2021/09/14 07:15:45;;;;;;;4.68;4.47;;;21.90;67.80;;;;;;5030713;28;20030;-83
2021/09/14 07:18:11;;;;;;;4.95;4.65;;;22.00;67.90;;;;;;5010417;28;20795;-88
2021/09/14 07:20:38;;;;;;;5.05;4.65;;;22.00;67.90;;;;;;5032433;28;20025;-88
2021/09/14 07:23:04;;;;;;;4.90;4.68;;;22.00;67.90;;;;;;5029668;28;20410;-89
2021/09/14 07:25:30;;;;;;;5.55;5.15;;;22.00;67.90;;;;;;5016633;28;20022;-90
2021/09/14 07:27:56;;;;;;;4.50;4.30;;;22.00;68.00;;;;;;5031616;28;20040;-82
2021/09/14 07:30:22;;;;;;;5.25;4.95;;;22.00;68.10;;;;;;5028943;28;20520;-83
2021/09/14 07:32:54;;;;;;;4.60;4.40;;;22.00;68.10;;;;;;5031368;28;20036;-81
2021/09/14 07:35:21;;;;;;;5.13;4.82;;;22.00;68.10;;;;;;5024714;28;20386;-83
2021/09/14 07:37:47;;;;;;;4.28;4.07;;;22.00;68.10;;;;;;5027887;28;20018;-83
2021/09/14 07:40:13;;;;;;;5.80;5.43;;;22.10;68.10;;;;;;5030116;28;20041;-83
2021/09/14 07:42:39;;;;;;;5.57;5.28;;;22.10;68.00;;;;;;5025338;28;20041;-83
2021/09/14 07:45:05;;;;;;;4.78;4.47;;;22.30;68.10;;;;;;5004900;28;20037;-82
2021/09/14 07:47:31;;;;;;;4.80;4.50;;;22.30;67.80;;;;;;5014344;28;20048;-82
2021/09/14 07:49:58;;;;;;;4.95;4.75;;;22.40;67.70;;;;;;5032593;28;20028;-84
2021/09/14 07:52:24;;;;;;;4.75;4.55;;;22.50;68.00;;;;;;5025262;28;20038;-84
2021/09/14 07:54:50;;;;;;;4.85;4.65;;;22.60;67.40;;;;;;5031095;28;20034;-86
2021/09/14 07:57:16;;;;;;;4.85;4.65;;;22.60;67.20;;;;;;5027236;28;20033;-83
2021/09/14 07:59:42;;;;;;;5.65;5.35;;;22.70;67.20;;;;;;5019360;28;20094;-82
2021/09/14 08:02:08;;;;;;;4.72;4.53;;;22.80;67.00;;;;;;5022881;28;20053;-82
2021/09/14 08:04:34;;;;;;;5.53;5.22;;;22.90;66.90;;;;;;5025941;28;20386;-82
2021/09/14 08:07:01;;;;;;;5.70;5.40;;;23.00;66.80;;;;;;5025536;28;20037;-82
2021/09/14 08:09:28;;;;;;;6.50;5.60;;;23.10;66.70;;;;;;5022826;28;20545;-82
2021/09/14 08:11:55;;;;;;;5.85;5.55;;;23.10;66.60;;;;;;5012840;28;20041;-85
2021/09/14 08:14:21;;;;;;;5.97;5.68;;;23.30;66.50;;;;;;5022376;28;20026;-85
2021/09/14 08:16:47;;;;;;;6.57;6.22;;;23.40;66.20;;;;;;5005140;28;20048;-84
2021/09/14 08:19:14;;;;;;;6.53;6.22;;;23.60;65.90;;;;;;5025128;28;20032;-84
2021/09/14 08:21:40;;;;;;;7.70;7.28;;;23.90;65.40;;;;;;5028293;28;20037;-81
2021/09/14 08:24:09;;;;;;;7.30;6.93;;;24.30;64.70;;;;;;5027340;28;20038;-81
2021/09/14 08:26:38;;;;;;;7.65;7.25;;;24.60;64.00;;;;;;5031605;28;20033;-81
2021/09/14 08:29:04;;;;;;;9.13;8.73;;;25.00;63.40;;;;;;5027036;28;20033;-82
2021/09/14 08:31:30;;;;;;;8.90;8.50;;;25.20;62.90;;;;;;5026171;28;20048;-82
2021/09/14 08:33:57;;;;;;;10.32;9.63;;;25.40;62.60;;;;;;5020589;28;20017;-85
2021/09/14 08:36:23;;;;;;;9.05;8.65;;;25.60;62.40;;;;;;5033167;28;20033;-84
2021/09/14 08:38:49;;;;;;;9.00;8.60;;;25.80;62.10;;;;;;5033256;28;20382;-83
2021/09/14 08:41:16;;;;;;;10.05;9.55;;;26.00;61.90;;;;;;5036317;28;20045;-85
2021/09/14 08:43:47;;;;;;;12.23;11.63;;;26.10;61.60;;;;;;5017667;28;20026;-83
2021/09/14 08:46:17;;;;;;;13.88;13.20;;;26.40;61.30;;;;;;5011115;28;20100;-83
2021/09/14 08:48:44;;;;;;;14.05;13.45;;;26.60;60.80;;;;;;5031693;28;20497;-84
2021/09/14 08:51:10;;;;;;;15.45;14.75;;;26.80;60.40;;;;;;5028567;28;20501;-82
2021/09/14 08:53:36;;;;;;;15.07;14.38;;;27.00;60.00;;;;;;5032173;28;20029;-83
2021/09/14 08:56:04;;;;;;;17.30;16.50;;;27.30;59.70;;;;;;5030050;28;20029;-82
2021/09/14 08:58:30;;;;;;;14.73;14.02;;;27.50;59.20;;;;;;5031441;28;20041;-82
2021/09/14 09:00:56;;;;;;;16.33;15.10;;;27.60;59.20;;;;;;5023723;28;20030;-84
2021/09/14 09:03:30;;;;;;;17.05;16.25;;;27.70;59.20;;;;;;5007370;28;20052;-84
2021/09/14 09:05:57;;;;;;;15.45;14.75;;;27.80;58.90;;;;;;5029803;28;20044;-85
2021/09/14 09:08:27;;;;;;;15.38;14.65;;;27.70;58.80;;;;;;5029854;28;20052;-84
2021/09/14 09:11:01;;;;;;;15.85;15.15;;;27.60;59.10;;;;;;5025473;28;20032;-84
2021/09/14 09:13:51;;;;;;;14.07;13.40;;;27.40;59.30;;;;;;5029743;28;20025;-82
2021/09/14 09:16:24;;;;;;;14.32;13.20;;;27.30;59.40;;;;;;5012720;28;20375;-83
2021/09/14 09:18:53;;;;;;;15.15;14.45;;;27.10;59.50;;;;;;5031352;28;20044;-83
2021/09/14 09:21:27;;;;;;;12.80;12.10;;;27.00;59.60;;;;;;5030750;28;20417;-83
2021/09/14 09:24:00;;;;;;;11.02;10.50;;;26.90;59.80;;;;;;5024664;28;20032;-83
2021/09/14 09:26:40;;;;;;;9.88;9.38;;;26.80;59.80;;;;;;5031063;28;20025;-83
2021/09/14 09:29:07;;;;;;;8.88;8.48;;;26.70;59.90;;;;;;5030798;28;20032;-83
2021/09/14 09:31:34;;;;;;;11.18;10.68;;;26.70;59.90;;;;;;5012384;28;20042;-83
2021/09/14 09:34:08;;;;;;;10.18;9.68;;;26.70;59.90;;;;;;5010814;28;20034;-84
2021/09/14 09:36:43;;;;;;;11.23;10.63;;;26.60;59.80;;;;;;5079068;28;20459;-83
2021/09/14 09:39:11;;;;;;;11.18;10.68;;;26.50;59.90;;;;;;5070748;28;20048;-83
2021/09/14 09:41:40;;;;;;;10.00;9.50;;;26.50;59.90;;;;;;5047819;28;20401;-82
2021/09/14 09:44:08;;;;;;;10.27;9.77;;;26.40;59.90;;;;;;5073607;28;20029;-82
2021/09/14 09:46:38;;;;;;;10.95;10.45;;;26.40;60.00;;;;;;5029632;28;20030;-83
2021/09/14 09:49:06;;;;;;;11.40;10.82;;;26.40;59.90;;;;;;5001390;28;20045;-83
2021/09/14 09:51:36;;;;;;;10.68;10.18;;;26.40;59.80;;;;;;5008294;28;20509;-83
2021/09/14 09:54:02;;;;;;;10.82;10.32;;;26.50;59.70;;;;;;5015809;28;20037;-83
2021/09/14 09:56:32;;;;;;;11.43;10.82;;;26.60;59.60;;;;;;5015778;28;20140;-83
2021/09/14 09:59:01;;;;;;;12.77;12.18;;;26.60;59.50;;;;;;4991421;28;20030;-83
2021/09/14 10:01:28;;;;;;;12.90;12.30;;;26.70;59.40;;;;;;5024993;28;20037;-83
2021/09/14 10:04:04;;;;;;;12.52;11.93;;;26.70;59.30;;;;;;5009717;28;20534;-83
2021/09/14 10:06:33;;;;;;;12.77;11.98;;;26.70;59.10;;;;;;5009904;28;20034;-82
2021/09/14 10:08:59;;;;;;;12.73;12.13;;;26.80;59.20;;;;;;5013767;28;20030;-83
2021/09/14 10:11:27;;;;;;;11.27;10.68;;;26.80;59.10;;;;;;5012674;28;20025;-83
2021/09/14 10:14:12;;;;;;;11.25;10.75;;;26.70;59.20;;;;;;5020045;28;20042;-83
2021/09/14 10:16:45;;;;;;;11.52;10.45;;;26.70;59.40;;;;;;5014517;28;20049;-83
2021/09/14 10:19:28;;;;;;;12.18;11.52;;;26.60;59.40;;;;;;5002180;28;20045;-83
2021/09/14 10:22:08;;;;;;;12.57;11.98;;;26.50;59.60;;;;;;5022225;28;20494;-83
2021/09/14 10:24:35;;;;;;;13.37;12.77;;;26.30;59.60;;;;;;5010261;28;20407;-82
2021/09/14 10:27:14;;;;;;;14.40;13.68;;;26.20;59.80;;;;;;4978946;28;20038;-83
2021/09/14 10:29:40;;;;;;;13.52;12.88;;;26.20;59.80;;;;;;5016056;28;20033;-83
2021/09/14 10:32:13;;;;;;;12.20;11.50;;;26.20;60.10;;;;;;5005840;28;20391;-83
2021/09/14 10:34:51;;;;;;;10.80;10.20;;;26.10;59.90;;;;;;4998682;28;20494;-82
2021/09/14 10:37:17;;;;;;;11.93;11.10;;;26.00;60.00;;;;;;5019924;28;20038;-85
2021/09/14 10:39:44;;;;;;;11.32;10.80;;;26.00;59.90;;;;;;5010157;28;20395;-80
2021/09/14 10:42:17;;;;;;;10.50;9.90;;;26.10;59.90;;;;;;5016345;28;20030;-80
2021/09/14 10:44:44;;;;;;;11.13;10.52;;;26.10;59.80;;;;;;5018521;28;20029;-81
2021/09/14 10:47:15;;;;;;;11.65;11.10;;;26.20;59.80;;;;;;4996868;28;20514;-83
2021/09/14 10:49:45;;;;;;;15.10;14.40;;;26.30;59.60;;;;;;4975766;28;20049;-84
2021/09/14 10:52:12;;;;;;;10.57;9.98;;;26.30;59.50;;;;;;4984827;28;20503;-81
2021/09/14 10:54:47;;;;;;;12.23;11.52;;;26.30;59.60;;;;;;4995176;28;20038;-82
2021/09/14 10:57:13;;;;;;;16.55;15.70;;;26.30;59.50;;;;;;4996519;28;20387;-83
2021/09/14 10:59:47;;;;;;;17.38;16.55;;;26.40;59.50;;;;;;5000594;28;20391;-82
2021/09/14 11:02:13;;;;;;;12.50;11.88;;;26.40;59.40;;;;;;4985429;28;20053;-85
2021/09/14 11:04:42;;;;;;;11.90;11.38;;;26.30;59.50;;;;;;5002605;28;20475;-82
2021/09/14 11:07:12;;;;;;;10.90;10.40;;;26.30;59.50;;;;;;5001739;28;20036;-81
2021/09/14 11:09:39;;;;;;;13.23;12.00;;;26.40;59.60;;;;;;4992780;28;20023;-81
2021/09/14 11:12:05;;;;;;;16.30;15.27;;;26.40;59.50;;;;;;4997510;28;20038;-81
2021/09/14 11:14:35;;;;;;;17.13;16.33;;;26.50;59.40;;;;;;5000495;28;20029;-81
2021/09/14 11:17:02;;;;;;;12.10;11.55;;;26.50;59.30;;;;;;4999960;28;20053;-83
2021/09/14 11:19:28;;;;;;;12.55;11.95;;;26.60;59.30;;;;;;5001756;28;20124;-81
2021/09/14 11:21:54;;;;;;;11.57;11.07;;;26.70;59.20;;;;;;4976107;28;20369;-80
2021/09/14 11:24:21;;;;;;;12.25;11.65;;;26.70;59.10;;;;;;4999788;28;20347;-81
2021/09/14 11:26:48;;;;;;;12.70;12.00;;;26.70;59.10;;;;;;4998370;28;20031;-82
2021/09/14 11:29:14;;;;;;;12.45;11.85;;;26.70;59.00;;;;;;4984478;28;20478;-81
2021/09/14 11:31:40;;;;;;;13.65;13.00;;;26.80;59.00;;;;;;4993982;28;20038;-81
2021/09/14 11:34:06;;;;;;;12.75;12.15;;;26.80;58.90;;;;;;5004465;28;20030;-83
2021/09/14 11:36:32;;;;;;;12.98;12.32;;;26.90;58.90;;;;;;5000829;28;20045;-81
2021/09/14 11:38:59;;;;;;;15.68;14.88;;;26.90;58.70;;;;;;4996243;28;20499;-81
2021/09/14 11:41:38;;;;;;;16.05;15.25;;;26.90;58.60;;;;;;4980670;28;20418;-80
2021/09/14 11:44:05;;;;;;;14.90;14.20;;;27.00;58.50;;;;;;4998057;28;20041;-80
2021/09/14 11:46:31;;;;;;;15.95;15.23;;;27.00;58.40;;;;;;4980497;28;20034;-81
2021/09/14 11:49:03;;;;;;;16.27;15.48;;;26.90;58.40;;;;;;5004995;28;20036;-80
2021/09/14 11:51:30;;;;;;;14.93;14.23;;;26.80;58.40;;;;;;4990093;28;20368;-81
2021/09/14 11:53:56;;;;;;;14.75;13.95;;;26.80;58.40;;;;;;4980058;28;20507;-81
2021/09/14 11:56:26;;;;;;;15.35;14.65;;;26.70;58.40;;;;;;5000984;28;20042;-81
2021/09/14 11:58:52;;;;;;;16.85;16.05;;;26.70;58.50;;;;;;4966406;28;20039;-81
2021/09/14 12:01:19;;;;;;;15.25;14.55;;;26.60;58.50;;;;;;4995907;28;20031;-81
2021/09/14 12:03:54;;;;;;;15.95;15.07;;;26.60;58.60;;;;;;4977778;28;20038;-81
2021/09/14 12:06:22;;;;;;;12.38;11.77;;;26.50;58.50;;;;;;4977149;28;20475;-81
2021/09/14 12:08:48;;;;;;;14.90;14.00;;;26.50;58.50;;;;;;4997517;28;20391;-81
2021/09/14 12:11:23;;;;;;;11.27;10.68;;;26.50;58.50;;;;;;5000871;28;20037;-81
2021/09/14 12:13:54;;;;;;;13.15;12.52;;;26.50;58.40;;;;;;4997721;28;20027;-81
2021/09/14 12:16:25;;;;;;;;;;;26.60;58.30;;;;;;4990381;28;20046;-80
2021/09/14 12:18:51;;;;;;;12.75;12.07;;;26.60;58.20;;;;;;4993425;28;19917;-81
2021/09/14 12:21:17;;;;;;;15.30;14.60;;;26.60;58.10;;;;;;4999556;28;20029;-80
2021/09/14 12:23:44;;;;;;;13.15;12.55;;;26.60;58.10;;;;;;5006065;28;20034;-81
2021/09/14 12:26:23;;;;;;;14.05;13.43;;;26.60;58.00;;;;;;5003914;28;20031;-81
2021/09/14 12:28:53;;;;;;;14.23;13.55;;;26.60;58.00;;;;;;5004827;28;20037;-81
2021/09/14 12:31:20;;;;;;;14.80;14.10;;;26.60;57.90;;;;;;4979909;28;20034;-81
2021/09/14 12:33:46;;;;;;;15.15;14.35;;;26.60;57.90;;;;;;4985526;28;20410;-81
2021/09/14 12:36:12;;;;;;;14.77;14.07;;;26.60;57.90;;;;;;4993530;28;20050;-81
2021/09/14 12:38:38;;;;;;;15.25;14.50;;;26.60;57.90;;;;;;4993855;28;20034;-81
2021/09/14 12:41:04;;;;;;;14.50;13.80;;;26.50;57.90;;;;;;5006233;28;20022;-84
2021/09/14 12:43:31;;;;;;;10.25;9.75;;;26.50;57.90;;;;;;4986524;28;20026;-81
2021/09/14 12:46:00;;;;;;;12.15;11.00;;;26.50;58.00;;;;;;5031777;28;20479;-82
2021/09/14 12:48:26;;;;;;;11.15;10.55;;;26.40;57.90;;;;;;4979855;28;20034;-82
2021/09/14 12:50:52;;;;;;;10.18;9.68;;;26.40;57.90;;;;;;4979364;28;20034;-83
2021/09/14 12:53:18;;;;;;;12.10;11.40;;;26.50;58.10;;;;;;4987865;28;20490;-83
2021/09/14 12:55:44;;;;;;;10.55;10.05;;;26.40;58.00;;;;;;4997611;28;20061;-83
2021/09/14 12:58:10;;;;;;;10.52;10.00;;;26.40;58.00;;;;;;4995690;28;20497;-83
2021/09/14 13:00:37;;;;;;;10.10;9.60;;;26.40;58.00;;;;;;4997684;28;20049;-83
2021/09/14 13:03:03;;;;;;;11.30;10.73;;;26.40;58.00;;;;;;4995243;28;20057;-81
2021/09/14 13:05:30;;;;;;;11.50;10.90;;;26.40;58.00;;;;;;4974906;28;20040;-81
2021/09/14 13:07:56;;;;;;;10.65;10.15;;;26.40;57.90;;;;;;4984039;28;20023;-81
2021/09/14 13:10:23;;;;;;;10.18;9.68;;;26.40;57.80;;;;;;4979593;28;20038;-81
2021/09/14 13:16:10;;;;;;;9.10;8.70;;;26.50;57.80;;;;;;4997672;28;20030;-81
2021/09/14 13:18:20;;;;;;;9.50;9.10;;;26.50;57.70;;;;;;5008960;28;20027;-83
2021/09/14 13:20:46;;;;;;;10.52;10.02;;;26.60;57.70;;;;;;4996269;28;20078;-83
2021/09/14 13:23:12;;;;;;;10.35;9.73;;;26.60;57.60;;;;;;5002024;28;20026;-82
2021/09/14 13:25:38;;;;;;;10.55;10.05;;;26.70;57.60;;;;;;5000420;28;20041;-81
2021/09/14 13:28:04;;;;;;;10.00;9.50;;;26.70;57.50;;;;;;5008316;28;20026;-81
2021/09/14 13:30:30;;;;;;;16.65;15.85;;;26.70;57.40;;;;;;5006733;28;20041;-82
2021/09/14 13:32:56;;;;;;;17.42;16.52;;;26.80;57.40;;;;;;5006770;28;20486;-84
2021/09/14 13:35:22;;;;;;;17.38;16.58;;;26.90;57.30;;;;;;4995510;28;20038;-83
2021/09/14 13:37:49;;;;;;;18.23;17.38;;;26.90;57.20;;;;;;5024027;28;20426;-82